CDB5 weather

Moncton / Salisbury Heliport
Moncton, New Brunswick, Canada

Public forecast

Using degrees Celsius for public forecast. Weather courtesy of forecast.io.

Closest aviation weather report (METAR) to Moncton / Salisbury Heliport

Closest report is Greater Moncton International Airport, 16.4 nm (30.4 km) ENE. Retrieved 2019/10/22 02:00 UTC (41 minutes ago):

CYQM 220200Z 34003KT 10SM R29/3000FT/N SKC 06/05 A3018 RMK SLP225

Closest aviation forecast (TAF) to Moncton / Salisbury Heliport

Closest forecast is Greater Moncton International Airport, 16.4 nm (30.4 km) ENE. Retrieved 2019-10-22 00:42 UTC (2 hours ago):

TAF CYQM 212338Z 2200/2224 30005KT P6SM SKC FM220400 31005KT P6SM SKC PROB30 2204/2207 1SM BR BKN003 FM220700 VRB03KT 6SM BR SCT005 TEMPO 2207/2213 2SM BR BKN005 PROB30 2207/2212 1/2SM FG VV003 FM221300 07005KT P6SM FEW020 BECMG 2214/2216 07010KT BECMG 2222/2224 09005KT RMK NXT FCST BY 220600Z